createdAt,value
2019-02-06T00:01:02.615Z,4.23
2019-02-06T00:03:33.393Z,4.27
2019-02-06T00:06:04.255Z,4.23
2019-02-06T00:08:34.722Z,4.22
2019-02-06T00:11:06.223Z,4.26
2019-02-06T00:13:36.974Z,4.21
2019-02-06T00:16:08.021Z,4.19
2019-02-06T00:18:38.498Z,4.17
2019-02-06T00:21:09.021Z,4.17
2019-02-06T00:23:39.570Z,4.13
2019-02-06T00:26:10.283Z,4.17
2019-02-06T00:28:41.261Z,4.13
2019-02-06T00:31:11.752Z,4.13
2019-02-06T00:33:42.526Z,4.08
2019-02-06T00:36:12.968Z,4.09
2019-02-06T00:38:43.469Z,4.03
2019-02-06T00:41:13.973Z,4.05
2019-02-06T00:43:44.452Z,4.01
2019-02-06T00:46:15.016Z,4.01
2019-02-06T00:48:45.543Z,4.02
2019-02-06T00:51:16.024Z,4.00
2019-02-06T00:53:46.855Z,4.02
2019-02-06T00:56:17.337Z,4.02
2019-02-06T00:58:47.842Z,4.01
2019-02-06T01:01:19.979Z,3.97
2019-02-06T01:03:50.616Z,3.95
2019-02-06T01:06:21.148Z,3.95
2019-02-06T01:08:51.739Z,3.92
2019-02-06T01:11:22.614Z,3.92
2019-02-06T01:13:53.112Z,3.88
2019-02-06T01:16:23.900Z,3.89
2019-02-06T01:18:54.693Z,3.86
2019-02-06T01:21:25.653Z,3.84
2019-02-06T01:23:56.284Z,3.83
2019-02-06T01:26:26.977Z,3.85
2019-02-06T01:28:57.445Z,3.82
2019-02-06T01:31:30.011Z,3.85
2019-02-06T01:34:00.471Z,3.88
2019-02-06T01:36:30.943Z,3.87
2019-02-06T01:39:01.471Z,3.86
2019-02-06T01:41:31.910Z,3.82
2019-02-06T01:44:02.765Z,3.87
2019-02-06T01:46:33.716Z,3.82
2019-02-06T01:49:04.844Z,3.81
2019-02-06T01:51:35.315Z,3.78
2019-02-06T01:54:05.955Z,3.78
2019-02-06T01:56:36.424Z,3.75
2019-02-06T01:59:07.180Z,3.78
2019-02-06T02:01:38.008Z,3.74
2019-02-06T02:04:08.742Z,3.71
2019-02-06T02:06:39.265Z,3.70
2019-02-06T02:09:19.805Z,3.67
2019-02-06T02:11:50.468Z,3.69
2019-02-06T02:14:20.912Z,3.64
2019-02-06T02:16:51.389Z,3.64
2019-02-06T02:19:23.974Z,3.59
2019-02-06T02:21:54.674Z,3.64
2019-02-06T02:24:25.472Z,3.57
2019-02-06T02:26:55.911Z,3.54
2019-02-06T02:29:26.674Z,3.64
2019-02-06T02:31:57.349Z,3.64
2019-02-06T02:34:28.065Z,3.54
2019-02-06T02:36:58.520Z,3.54
2019-02-06T02:39:29.103Z,3.49
2019-02-06T02:42:00.177Z,3.53
2019-02-06T02:44:30.804Z,3.52
2019-02-06T02:47:01.297Z,3.49
2019-02-06T02:49:32.014Z,3.50
2019-02-06T02:52:02.561Z,3.50
2019-02-06T02:54:33.346Z,3.56
2019-02-06T02:57:04.059Z,3.57
2019-02-06T02:59:34.496Z,3.60
2019-02-06T03:02:23.880Z,3.65
2019-02-06T03:05:01.694Z,3.67
2019-02-06T03:07:32.198Z,3.62
2019-02-06T03:10:02.577Z,3.66
2019-02-06T03:12:33.031Z,3.65
2019-02-06T03:15:03.616Z,3.66
2019-02-06T03:17:34.089Z,3.71
2019-02-06T03:20:06.164Z,3.62
2019-02-06T03:22:36.675Z,3.64
2019-02-06T03:25:08.501Z,3.66
2019-02-06T03:27:39.072Z,3.65
2019-02-06T03:30:13.221Z,3.66
2019-02-06T03:32:44.091Z,3.64
2019-02-06T03:35:14.879Z,3.69
2019-02-06T03:37:45.377Z,3.66
2019-02-06T03:40:16.519Z,3.67
2019-02-06T03:42:47.510Z,3.67
2019-02-06T03:45:18.354Z,3.66
2019-02-06T03:47:48.852Z,3.68
2019-02-06T03:50:19.721Z,3.66
2019-02-06T03:52:50.396Z,3.59
2019-02-06T03:55:20.955Z,3.56
2019-02-06T03:57:51.464Z,3.55
2019-02-06T04:00:22.235Z,3.63
2019-02-06T04:02:52.968Z,3.58
2019-02-06T04:05:23.466Z,3.58
2019-02-06T04:07:54.241Z,3.56
2019-02-06T04:10:24.991Z,3.52
2019-02-06T04:12:56.193Z,3.55
2019-02-06T04:15:26.956Z,3.54
2019-02-06T04:17:57.689Z,3.56
2019-02-06T04:20:28.158Z,3.60
2019-02-06T04:22:58.667Z,3.59
2019-02-06T04:25:29.135Z,3.60
2019-02-06T04:27:59.603Z,3.63
2019-02-06T04:30:30.212Z,3.60
2019-02-06T04:33:00.943Z,3.60
2019-02-06T04:35:31.425Z,3.56
2019-02-06T04:38:02.469Z,3.64
2019-02-06T04:40:33.285Z,3.57
2019-02-06T04:43:04.384Z,3.56
2019-02-06T04:45:35.209Z,3.54
2019-02-06T04:48:05.793Z,3.55
2019-02-06T04:50:36.548Z,3.53
2019-02-06T04:53:07.136Z,3.52
2019-02-06T04:55:37.589Z,3.50
2019-02-06T04:58:08.318Z,3.57
2019-02-06T05:00:38.986Z,3.59
2019-02-06T05:03:09.720Z,3.58
2019-02-06T05:05:40.183Z,3.61
2019-02-06T05:08:11.326Z,3.64
2019-02-06T05:10:41.859Z,3.61
2019-02-06T05:13:12.884Z,3.59
2019-02-06T05:15:43.393Z,3.64
2019-02-06T05:18:14.137Z,3.68
2019-02-06T05:20:44.617Z,3.70
2019-02-06T05:23:15.142Z,3.69
2019-02-06T05:25:45.659Z,3.71
2019-02-06T05:28:18.208Z,3.69
2019-02-06T05:30:48.480Z,3.70
2019-02-06T05:33:19.396Z,3.69
2019-02-06T05:35:50.286Z,3.72
2019-02-06T05:38:20.814Z,3.69
2019-02-06T05:40:51.640Z,3.70
2019-02-06T05:43:22.139Z,3.72
2019-02-06T05:45:52.812Z,3.71
2019-02-06T05:48:23.290Z,3.73
2019-02-06T05:50:54.043Z,3.67
2019-02-06T05:53:24.556Z,3.64
2019-02-06T05:55:55.314Z,3.63
2019-02-06T05:58:25.817Z,3.60
2019-02-06T06:00:56.352Z,3.60
2019-02-06T06:03:27.094Z,3.59
2019-02-06T06:05:57.563Z,3.59
2019-02-06T06:08:28.141Z,3.53
2019-02-06T06:10:58.741Z,3.54
2019-02-06T06:13:29.598Z,3.58
2019-02-06T06:16:00.094Z,3.59
2019-02-06T06:18:30.871Z,3.53
2019-02-06T06:21:01.525Z,3.57
2019-02-06T06:23:32.063Z,3.56
2019-02-06T06:26:02.582Z,3.55
2019-02-06T06:28:33.049Z,3.52
2019-02-06T06:31:03.699Z,3.56
2019-02-06T06:33:34.560Z,3.56
2019-02-06T06:36:05.017Z,3.58
2019-02-06T06:38:35.577Z,3.59
2019-02-06T06:41:06.062Z,3.60
2019-02-06T06:43:36.572Z,3.64
2019-02-06T06:46:07.146Z,3.63
2019-02-06T06:48:37.629Z,3.67
2019-02-06T06:51:08.331Z,3.66
2019-02-06T06:53:39.109Z,3.67
2019-02-06T06:56:09.594Z,3.68
2019-02-06T06:58:40.076Z,3.69
2019-02-06T07:01:11.191Z,3.68
2019-02-06T07:03:41.991Z,3.68
2019-02-06T07:06:12.486Z,3.70
2019-02-06T07:08:43.058Z,3.73
2019-02-06T07:11:13.665Z,3.75
2019-02-06T07:13:44.260Z,3.81
2019-02-06T07:16:14.942Z,3.80
2019-02-06T07:18:45.980Z,3.83
2019-02-06T07:21:16.813Z,3.85
2019-02-06T07:23:47.541Z,3.83
2019-02-06T07:26:18.899Z,3.81
2019-02-06T07:28:49.717Z,3.86
2019-02-06T07:31:20.365Z,3.96
2019-02-06T07:33:51.621Z,3.96
2019-02-06T07:36:22.682Z,3.99
2019-02-06T07:38:53.794Z,4.08
2019-02-06T07:41:24.632Z,4.10
2019-02-06T07:43:55.400Z,4.23
2019-02-06T07:46:26.073Z,4.23
2019-02-06T07:48:56.743Z,4.27
2019-02-06T07:51:27.326Z,4.32
2019-02-06T07:53:58.482Z,4.45
2019-02-06T07:56:33.583Z,4.46
2019-02-06T07:59:04.226Z,4.41
2019-02-06T08:01:34.686Z,4.44
2019-02-06T08:04:05.741Z,4.47
2019-02-06T08:06:36.589Z,4.43
2019-02-06T08:09:10.509Z,4.52
2019-02-06T08:11:41.259Z,4.48
2019-02-06T08:14:11.815Z,4.52
2019-02-06T08:16:42.304Z,4.56
2019-02-06T08:19:13.128Z,4.55
2019-02-06T08:21:43.887Z,4.59
2019-02-06T08:24:14.371Z,4.59
2019-02-06T08:26:45.115Z,4.65
2019-02-06T08:29:15.595Z,4.60
2019-02-06T08:31:46.333Z,4.62
2019-02-06T08:34:17.186Z,4.71
2019-02-06T08:36:47.656Z,4.74
2019-02-06T08:39:18.320Z,4.76
2019-02-06T08:41:49.103Z,4.73
2019-02-06T08:44:19.579Z,4.84
2019-02-06T08:46:50.367Z,4.81
2019-02-06T08:49:21.441Z,4.77
2019-02-06T08:51:52.429Z,4.86
2019-02-06T08:54:22.913Z,4.84
2019-02-06T08:56:55.339Z,4.92
2019-02-06T08:59:26.072Z,4.88
2019-02-06T09:01:56.543Z,4.86
2019-02-06T09:04:27.345Z,4.86
2019-02-06T09:06:57.829Z,5.02
2019-02-06T09:09:28.519Z,5.12
2019-02-06T09:11:59.013Z,5.13
2019-02-06T09:14:29.499Z,5.17
2019-02-06T09:17:00.442Z,5.29
2019-02-06T09:19:31.182Z,5.23
2019-02-06T09:22:01.645Z,5.48
2019-02-06T09:24:32.145Z,5.60
2019-02-06T09:27:02.606Z,5.59
2019-02-06T09:29:33.279Z,5.60
2019-02-06T09:32:03.823Z,5.75
2019-02-06T09:34:34.283Z,5.93
2019-02-06T09:37:05.361Z,5.94
2019-02-06T09:39:36.174Z,5.97
2019-02-06T09:42:06.873Z,6.01
2019-02-06T09:44:37.850Z,6.24
2019-02-06T09:47:08.399Z,6.04
2019-02-06T09:49:41.557Z,6.20
2019-02-06T09:52:11.309Z,6.25
2019-02-06T09:54:42.088Z,6.21
2019-02-06T09:57:14.073Z,6.47
2019-02-06T09:59:44.567Z,6.49
2019-02-06T10:02:15.042Z,6.64
2019-02-06T10:04:45.610Z,6.48
2019-02-06T10:07:18.962Z,6.72
2019-02-06T10:09:49.671Z,6.60
2019-02-06T10:12:20.618Z,6.78
2019-02-06T10:14:51.165Z,6.72
2019-02-06T10:17:21.623Z,6.80
2019-02-06T10:19:52.160Z,6.60
2019-02-06T10:22:22.643Z,6.59
2019-02-06T10:24:53.421Z,6.41
2019-02-06T10:27:24.234Z,6.51
2019-02-06T10:29:54.685Z,6.64
2019-02-06T10:32:25.415Z,6.77
2019-02-06T10:34:55.963Z,6.74
2019-02-06T10:37:29.150Z,6.60
2019-02-06T10:39:59.118Z,6.78
2019-02-06T10:42:29.707Z,6.91
2019-02-06T10:45:00.473Z,6.96
2019-02-06T10:47:31.263Z,6.98
2019-02-06T10:50:02.100Z,6.92
2019-02-06T10:52:33.066Z,6.85
2019-02-06T10:55:03.962Z,6.88
2019-02-06T10:57:34.558Z,7.01
2019-02-06T11:00:11.631Z,6.94
2019-02-06T11:02:42.266Z,7.09
2019-02-06T11:05:13.879Z,7.13
2019-02-06T11:07:46.281Z,7.24
2019-02-06T11:10:17.566Z,7.35
2019-02-06T11:12:48.424Z,7.53
2019-02-06T11:15:19.043Z,7.82
2019-02-06T11:17:49.998Z,7.94
2019-02-06T11:20:21.897Z,7.77
2019-02-06T11:22:52.463Z,7.93
2019-02-06T11:25:23.399Z,7.98
2019-02-06T11:27:54.333Z,7.65
2019-02-06T11:30:27.902Z,7.78
2019-02-06T11:32:59.045Z,7.45
2019-02-06T11:35:30.889Z,7.57
2019-02-06T11:38:01.543Z,7.71
2019-02-06T11:40:32.326Z,7.61
2019-02-06T11:43:03.561Z,7.59
2019-02-06T11:45:34.778Z,7.64
2019-02-06T11:48:06.316Z,7.77
2019-02-06T11:50:42.367Z,7.70
2019-02-06T11:53:17.715Z,7.71
2019-02-06T11:55:48.851Z,7.78
2019-02-06T11:58:19.725Z,7.78
2019-02-06T12:01:07.623Z,7.98
2019-02-06T12:03:38.283Z,8.11
2019-02-06T12:06:09.100Z,7.96
2019-02-06T12:08:39.730Z,7.98
2019-02-06T12:11:10.311Z,8.04
2019-02-06T12:13:41.033Z,8.13
2019-02-06T12:16:11.736Z,8.20
2019-02-06T12:18:42.403Z,8.29
2019-02-06T12:21:13.415Z,8.22
2019-02-06T12:23:44.276Z,8.23
2019-02-06T12:26:14.759Z,8.25
2019-02-06T12:28:45.268Z,8.32
2019-02-06T12:31:15.819Z,8.43
2019-02-06T12:33:46.265Z,8.50
2019-02-06T12:36:16.861Z,8.50
2019-02-06T12:38:53.679Z,8.67
2019-02-06T12:41:19.835Z,8.74
2019-02-06T12:43:50.314Z,8.81
2019-02-06T12:46:21.173Z,8.94
2019-02-06T12:48:51.665Z,8.98
2019-02-06T12:51:22.532Z,9.19
2019-02-06T12:53:53.275Z,9.09
2019-02-06T12:56:24.025Z,9.42
2019-02-06T12:58:54.897Z,9.27
2019-02-06T13:01:25.420Z,9.16
2019-02-06T13:03:55.915Z,9.34
2019-02-06T13:06:26.386Z,9.39
2019-02-06T13:08:56.955Z,9.20
2019-02-06T13:11:27.756Z,9.32
2019-02-06T13:13:58.287Z,9.34
2019-02-06T13:16:29.079Z,9.43
2019-02-06T13:18:59.544Z,9.56
2019-02-06T13:21:30.310Z,9.84
2019-02-06T13:24:01.053Z,9.99
2019-02-06T13:26:31.533Z,10.14
2019-02-06T13:29:02.318Z,10.33
2019-02-06T13:31:32.858Z,10.35
2019-02-06T13:34:03.570Z,10.19
2019-02-06T13:36:34.046Z,10.08
2019-02-06T13:39:07.693Z,10.20
2019-02-06T13:41:38.221Z,10.31
2019-02-06T13:44:08.974Z,10.38
2019-02-06T13:46:39.901Z,10.21
2019-02-06T13:49:10.392Z,10.20
2019-02-06T13:51:41.200Z,10.39
2019-02-06T13:54:11.721Z,10.17
2019-02-06T13:56:42.210Z,10.20
2019-02-06T13:59:12.931Z,10.32
2019-02-06T14:01:43.433Z,10.40
2019-02-06T14:04:14.029Z,10.28
2019-02-06T14:06:44.527Z,10.32
2019-02-06T14:09:22.594Z,10.47
2019-02-06T14:11:49.513Z,10.42
2019-02-06T14:14:20.106Z,10.51
2019-02-06T14:16:50.706Z,10.61
2019-02-06T14:19:21.177Z,10.53
2019-02-06T14:21:51.685Z,10.70
2019-02-06T14:24:52.057Z,10.72
2019-02-06T14:27:43.301Z,10.60
2019-02-06T14:30:57.669Z,10.66
2019-02-06T14:34:23.512Z,10.57
2019-02-06T14:37:56.939Z,10.47
2019-02-06T14:41:27.301Z,10.45
2019-02-06T14:45:21.627Z,10.36
2019-02-06T14:48:14.561Z,10.38
2019-02-06T14:51:45.727Z,10.44
2019-02-06T14:55:09.338Z,10.51
2019-02-06T14:58:56.385Z,10.61
2019-02-06T15:02:41.662Z,10.51
2019-02-06T15:05:57.524Z,10.50
2019-02-06T15:09:01.691Z,10.46
2019-02-06T15:11:51.478Z,10.48
2019-02-06T15:14:56.234Z,10.45
2019-02-06T15:18:08.856Z,10.55
2019-02-06T15:21:20.113Z,10.50
2019-02-06T15:24:51.119Z,10.45
2019-02-06T15:28:05.037Z,10.47
2019-02-06T15:31:41.733Z,10.44
2019-02-06T15:35:20.598Z,10.58
2019-02-06T15:39:14.128Z,10.50
2019-02-06T15:41:57.583Z,10.58
2019-02-06T15:44:56.308Z,10.44
2019-02-06T15:48:10.908Z,10.42
2019-02-06T15:51:56.736Z,10.42
2019-02-06T15:55:25.893Z,10.47
2019-02-06T15:59:03.751Z,10.42
2019-02-06T16:02:28.321Z,10.46
2019-02-06T16:05:46.196Z,10.39
2019-02-06T16:08:33.251Z,10.45
2019-02-06T16:11:42.471Z,10.47
2019-02-06T16:15:02.682Z,10.42
2019-02-06T16:18:17.296Z,10.39
2019-02-06T16:21:52.653Z,10.40
2019-02-06T16:25:08.137Z,10.34
2019-02-06T16:28:39.526Z,10.31
2019-02-06T16:32:10.980Z,10.31
2019-02-06T16:35:37.889Z,10.25
2019-02-06T16:39:20.214Z,10.22
2019-02-06T16:42:55.289Z,10.24
2019-02-06T16:46:13.223Z,10.28
2019-02-06T16:49:44.389Z,10.29
2019-02-06T16:53:12.198Z,10.20
2019-02-06T16:56:43.614Z,10.23
2019-02-06T16:59:57.440Z,10.18
2019-02-06T17:04:01.506Z,10.17
2019-02-06T17:07:11.432Z,10.12
2019-02-06T17:10:47.598Z,10.12
2019-02-06T17:14:19.364Z,10.07
2019-02-06T17:17:39.556Z,9.93
2019-02-06T17:21:11.627Z,9.89
2019-02-06T17:24:25.125Z,9.90
2019-02-06T17:27:58.217Z,9.74
2019-02-06T17:31:05.185Z,9.73
2019-02-06T17:34:29.298Z,9.63
2019-02-06T17:38:01.194Z,9.63
2019-02-06T17:41:35.611Z,9.58
2019-02-06T17:45:15.671Z,9.60
2019-02-06T17:48:30.145Z,9.55
2019-02-06T17:52:11.453Z,9.47
2019-02-06T17:55:25.585Z,9.45
2019-02-06T17:57:59.641Z,9.42
2019-02-06T18:00:51.491Z,9.37
2019-02-06T18:03:22.359Z,9.24
2019-02-06T18:05:53.309Z,9.24
2019-02-06T18:08:23.798Z,9.22
2019-02-06T18:10:54.548Z,9.12
2019-02-06T18:13:25.156Z,9.05
2019-02-06T18:15:55.652Z,8.98
2019-02-06T18:18:26.778Z,9.00
2019-02-06T18:20:57.366Z,9.00
2019-02-06T18:23:28.128Z,8.92
2019-02-06T18:25:58.644Z,8.83
2019-02-06T18:28:29.365Z,8.82
2019-02-06T18:30:59.903Z,8.77
2019-02-06T18:33:30.729Z,8.73
2019-02-06T18:36:01.203Z,8.68
2019-02-06T18:38:32.286Z,8.67
2019-02-06T18:41:02.919Z,8.67
2019-02-06T18:43:33.433Z,8.58
2019-02-06T18:46:03.955Z,8.57
2019-02-06T18:48:35.448Z,8.50
2019-02-06T18:51:06.697Z,8.48
2019-02-06T18:53:37.267Z,8.49
2019-02-06T18:56:07.989Z,8.39
2019-02-06T18:58:38.481Z,8.35
2019-02-06T19:01:09.393Z,8.45
2019-02-06T19:03:44.177Z,8.29
2019-02-06T19:06:15.030Z,8.23
2019-02-06T19:08:45.619Z,8.21
2019-02-06T19:11:16.226Z,8.20
2019-02-06T19:13:46.848Z,8.15
2019-02-06T19:16:17.798Z,8.01
2019-02-06T19:18:48.293Z,7.97
2019-02-06T19:21:19.601Z,7.97
2019-02-06T19:23:50.144Z,7.85
2019-02-06T19:26:20.639Z,7.86
2019-02-06T19:28:51.256Z,7.89
2019-02-06T19:31:21.725Z,7.77
2019-02-06T19:33:52.193Z,7.71
2019-02-06T19:36:23.357Z,7.83
2019-02-06T19:38:54.394Z,7.74
2019-02-06T19:41:24.871Z,7.76
2019-02-06T19:43:55.428Z,7.74
2019-02-06T19:46:26.548Z,7.74
2019-02-06T19:48:57.328Z,7.68
2019-02-06T19:51:28.109Z,7.64
2019-02-06T19:53:58.566Z,7.55
2019-02-06T19:56:29.050Z,7.57
2019-02-06T19:58:59.813Z,7.54
2019-02-06T20:01:30.299Z,7.56
2019-02-06T20:04:01.292Z,7.53
2019-02-06T20:06:32.890Z,7.44
2019-02-06T20:09:13.926Z,7.47
2019-02-06T20:11:44.714Z,7.29
2019-02-06T20:14:15.207Z,7.29
2019-02-06T20:16:46.596Z,7.29
2019-02-06T20:19:17.102Z,7.28
2019-02-06T20:21:47.577Z,7.24
2019-02-06T20:24:18.398Z,7.30
2019-02-06T20:26:48.952Z,7.29
2019-02-06T20:29:19.456Z,7.27
2019-02-06T20:31:49.939Z,7.26
2019-02-06T20:34:20.658Z,7.34
2019-02-06T20:36:52.849Z,7.31
2019-02-06T20:39:23.765Z,7.29
2019-02-06T20:41:55.933Z,7.32
2019-02-06T20:44:26.827Z,7.27
2019-02-06T20:46:58.075Z,7.29
2019-02-06T20:49:29.063Z,7.20
2019-02-06T20:52:00.068Z,7.24
2019-02-06T20:54:30.700Z,7.17
2019-02-06T20:57:11.827Z,7.15
2019-02-06T20:59:33.976Z,7.05
2019-02-06T21:02:04.678Z,7.03
2019-02-06T21:04:46.942Z,7.03
2019-02-06T21:07:17.217Z,7.05
2019-02-06T21:09:50.898Z,7.01
2019-02-06T21:12:22.137Z,7.04
2019-02-06T21:14:55.591Z,7.04
2019-02-06T21:17:27.052Z,7.01
2019-02-06T21:19:57.753Z,7.02
2019-02-06T21:22:34.407Z,7.00
2019-02-06T21:25:09.540Z,7.02
2019-02-06T21:27:41.940Z,7.02
2019-02-06T21:30:25.759Z,6.97
2019-02-06T21:32:57.006Z,6.99
2019-02-06T21:35:28.499Z,6.94
2019-02-06T21:37:59.812Z,6.84
2019-02-06T21:40:33.153Z,6.87
2019-02-06T21:43:04.079Z,6.82
2019-02-06T21:45:34.966Z,6.80
2019-02-06T21:48:08.678Z,6.86
2019-02-06T21:50:40.188Z,6.87
2019-02-06T21:53:10.820Z,6.84
2019-02-06T21:55:42.205Z,6.82
2019-02-06T21:58:14.975Z,6.78
2019-02-06T22:00:45.953Z,6.85
2019-02-06T22:03:17.242Z,6.80
2019-02-06T22:05:47.898Z,6.81
2019-02-06T22:08:18.453Z,6.83
2019-02-06T22:10:49.589Z,6.81
2019-02-06T22:13:20.351Z,6.80
2019-02-06T22:15:51.207Z,6.88
2019-02-06T22:18:22.243Z,6.88
2019-02-06T22:20:53.565Z,6.88
2019-02-06T22:23:24.217Z,6.89
2019-02-06T22:25:55.010Z,6.90
2019-02-06T22:28:28.449Z,6.90
2019-02-06T22:30:59.584Z,6.83
2019-02-06T22:33:30.404Z,6.85
2019-02-06T22:36:00.904Z,6.74
2019-02-06T22:38:31.433Z,6.80
2019-02-06T22:41:02.276Z,6.78
2019-02-06T22:43:32.872Z,6.86
2019-02-06T22:46:03.675Z,6.82
2019-02-06T22:48:34.148Z,6.82
2019-02-06T22:51:05.052Z,6.82
2019-02-06T22:53:35.605Z,6.76
2019-02-06T22:56:06.474Z,6.77
2019-02-06T22:58:37.157Z,6.72
2019-02-06T23:01:51.302Z,6.76
2019-02-06T23:04:21.793Z,6.73
2019-02-06T23:06:53.583Z,6.76
2019-02-06T23:09:24.413Z,6.74
2019-02-06T23:11:55.182Z,6.75
2019-02-06T23:14:26.317Z,6.83
2019-02-06T23:16:56.930Z,6.84
2019-02-06T23:19:27.488Z,6.79
2019-02-06T23:21:57.958Z,6.74
2019-02-06T23:24:28.800Z,6.66
2019-02-06T23:26:59.602Z,6.66
2019-02-06T23:29:30.096Z,6.59
2019-02-06T23:32:00.594Z,6.55
2019-02-06T23:34:31.088Z,6.55
2019-02-06T23:37:01.819Z,6.52
2019-02-06T23:39:32.314Z,6.55
2019-02-06T23:42:03.044Z,6.55
2019-02-06T23:44:33.827Z,6.53
2019-02-06T23:47:04.322Z,6.55
2019-02-06T23:49:35.027Z,6.47
2019-02-06T23:52:05.770Z,6.48
2019-02-06T23:54:36.579Z,6.51
2019-02-06T23:57:07.453Z,6.43
2019-02-06T23:59:44.075Z,6.48
